Canadian, TX (79014)

4:57 PM CDT on August 29, 2015 (GMT -0500)
APRSWXNET | | Change Station
CLOSE
Current Station
Personal Weather Station
Location: Canadian, TX
Elevation: 2434 ft
Nearby Weather Stations

Elev 2434 ft 35.90 °N, 100.39 °W | Updated 18 minutes ago

Clear
Clear
89 °F
Feels Like 88 °F
N
3
Wind Variable Wind from NE
Gusts 9.0 mph

Today
High -- | Low -- °F
--% Chance of Precip.
Yesterday
High -- | Low -- °F
Precip. -- in
7:10 AM 8:13 PM
Full, 100% visible
Pressure 30.05 in
Visibility 10.0 miles
Clouds Clear
Heat Index 88 °F
Dew Point 57 °F
Humidity 34%
Rainfall in
Snow Depth Not available.
UV 6 out of 12
Pollen 8.50 out of 12
Air Quality Not available.
Flu Activity Not available.
METAR KHHF 292135Z AUTO 04008KT 10SM CLR 32/12 A3005 RMK AO2 T03170117
Pressure 30.05 in
Visibility 10.0 miles
Clouds Clear
Heat Index 88 °F
Dew Point 57 °F
Humidity 34%
Rainfall in
Snow Depth Not available.
UV 6 out of 12
Pollen 8.50 out of 12
Air Quality Not available.
Flu Activity Not available.
METAR KHHF 292135Z AUTO 04008KT 10SM CLR 32/12 A3005 RMK AO2 T03170117

10-Day Weather Forecast

×

Almanac

Astronomy

Aug. 29, 2015 Rise Set
Actual Time
Civil Twilight
Nautical Twilight
Astronomical Twilight
Moon
Length of Visible Light
Length of Day
Tomorrow will be .
, % of the Moon is Illuminated

Today's Extremes

State Highs State Lows

Community

WunderPhotos

Upload Photos

1,850,795 photos uploaded!

WunderBlogs® & News

Nearby

Air Quality

  Air Quality AQ Index Pollutant
Not available.

Snow Depth

Station Depth Elevation

Earthquake Activity

City Distance Mag. Time & Date
Minimum magnitude displayed is 2.5.

Coastal Water Temperatures

Place Temperature

Stations

Nearby Weather Stations

Station Location Temp. Windchill Dew Point Humidity Wind Precip. Elev Updated Type